Time;durP1;ratioP1;P1;durP2;ratioP2;P2;SDS_P1;SDS_P2;PMS_P1;PMS_P2;Temp;Humidity;BMP_temperature;BMP_pressure;BME280_temperature;BME280_humidity;BME280_pressure;Samples;Min_cycle;Max_cycle;Signal;HPM_P1;HPM_P2
2023/03/11 00:00:13;;;;;;;12.52;7.55;;;-3.30;85.70;;;;;;5023932;28;20123;-84
2023/03/11 00:02:39;;;;;;;12.70;7.22;;;-3.30;85.30;;;;;;5015036;28;20027;-84
2023/03/11 00:05:07;;;;;;;12.27;7.18;;;-3.30;85.40;;;;;;5017937;28;20112;-83
2023/03/11 00:07:33;;;;;;;8.75;6.65;;;-3.30;85.50;;;;;;5032573;28;20032;-81
2023/03/11 00:09:59;;;;;;;11.73;6.93;;;-3.30;85.40;;;;;;5037475;28;20100;-82
2023/03/11 00:12:24;;;;;;;9.80;7.13;;;-3.30;85.50;;;;;;5022033;28;20018;-84
2023/03/11 00:14:50;;;;;;;11.35;6.78;;;-3.30;85.30;;;;;;5025156;28;20030;-84
2023/03/11 00:17:16;;;;;;;15.20;7.00;;;-3.30;85.00;;;;;;5034374;28;20026;-84
2023/03/11 00:19:42;;;;;;;11.50;7.55;;;-3.30;84.70;;;;;;5021658;28;20029;-84
2023/03/11 00:22:08;;;;;;;11.55;7.10;;;-3.20;84.70;;;;;;5016147;28;20337;-84
2023/03/11 00:24:34;;;;;;;17.30;7.35;;;-3.20;84.40;;;;;;5036607;28;20025;-84
2023/03/11 00:27:00;;;;;;;9.95;7.47;;;-3.20;84.60;;;;;;5039539;28;20018;-83
2023/03/11 00:29:26;;;;;;;11.20;6.88;;;-3.30;84.80;;;;;;5038309;28;20112;-85
2023/03/11 00:31:52;;;;;;;15.88;7.20;;;-3.30;84.50;;;;;;5040858;28;20022;-84
2023/03/11 00:34:17;;;;;;;11.68;6.78;;;-3.30;84.80;;;;;;5020697;28;20036;-84
2023/03/11 00:36:43;;;;;;;13.57;7.32;;;-3.40;84.90;;;;;;5021313;28;20018;-85
2023/03/11 00:39:09;;;;;;;12.50;7.00;;;-3.30;84.90;;;;;;5027296;28;20034;-84
2023/03/11 00:41:35;;;;;;;9.82;6.68;;;-3.30;84.50;;;;;;5021429;28;20022;-85
2023/03/11 00:44:01;;;;;;;13.15;7.15;;;-3.30;84.80;;;;;;5018463;28;20022;-84
2023/03/11 00:46:29;;;;;;;12.30;6.75;;;-3.30;85.00;;;;;;5018787;28;20030;-83
2023/03/11 00:48:55;;;;;;;14.35;7.13;;;-3.30;84.20;;;;;;5019419;28;20106;-84
2023/03/11 00:51:21;;;;;;;14.02;6.93;;;-3.20;83.90;;;;;;5016590;28;20025;-84
2023/03/11 00:53:47;;;;;;;10.30;6.10;;;-3.20;84.00;;;;;;5021188;28;20056;-83
2023/03/11 00:56:15;;;;;;;11.30;7.60;;;-3.20;84.00;;;;;;5032595;28;20052;-82
2023/03/11 00:58:43;;;;;;;10.80;7.07;;;-3.20;84.00;;;;;;5020679;28;20045;-83
2023/03/11 01:01:18;;;;;;;13.13;6.78;;;-3.20;84.10;;;;;;5016431;28;20038;-84
2023/03/11 01:03:45;;;;;;;12.43;7.25;;;-3.20;83.90;;;;;;5015353;28;20025;-83
2023/03/11 01:06:11;;;;;;;6.75;4.90;;;-3.20;83.90;;;;;;5014353;28;20049;-84
2023/03/11 01:08:37;;;;;;;14.57;7.15;;;-3.20;84.00;;;;;;5014162;28;20110;-83
2023/03/11 01:11:05;;;;;;;13.02;8.02;;;-3.20;84.00;;;;;;5002164;28;20028;-84
2023/03/11 01:13:32;;;;;;;10.05;6.70;;;-3.20;83.70;;;;;;5017825;28;20033;-84
2023/03/11 01:15:58;;;;;;;12.70;6.63;;;-3.20;83.50;;;;;;5014575;28;20022;-84
2023/03/11 01:18:24;;;;;;;12.85;6.65;;;-3.20;83.70;;;;;;5036674;28;20152;-82
2023/03/11 01:20:50;;;;;;;11.73;7.22;;;-3.10;83.50;;;;;;5021936;28;20034;-82
2023/03/11 01:23:18;;;;;;;14.43;6.95;;;-3.10;83.70;;;;;;5025353;28;20053;-82
2023/03/11 01:25:44;;;;;;;11.15;6.82;;;-3.10;83.70;;;;;;5029140;28;20040;-83
2023/03/11 01:28:12;;;;;;;10.13;6.28;;;-3.10;83.90;;;;;;5030865;28;20045;-84
2023/03/11 01:30:39;;;;;;;10.57;6.50;;;-3.10;83.20;;;;;;5026435;28;20026;-83
2023/03/11 01:33:06;;;;;;;13.10;7.50;;;-3.10;83.20;;;;;;5034614;28;20054;-84
2023/03/11 01:35:34;;;;;;;11.95;8.82;;;-3.20;82.50;;;;;;5035898;28;20034;-84
2023/03/11 01:38:00;;;;;;;;;;;-3.30;82.60;;;;;;5017786;28;20017;-83
2023/03/11 01:40:34;;;;;;;10.02;7.22;;;-3.50;82.40;;;;;;5020786;28;20015;-84
2023/03/11 01:43:01;;;;;;;13.93;8.65;;;-3.60;82.30;;;;;;5019175;28;20018;-83
2023/03/11 01:45:39;;;;;;;12.82;8.98;;;-3.70;83.20;;;;;;5017210;28;20030;-84
2023/03/11 01:48:05;;;;;;;;;;;-3.70;83.70;;;;;;5015430;28;20022;-85
2023/03/11 01:50:37;;;;;;;14.53;7.90;;;-3.80;83.90;;;;;;5013518;28;19906;-84
2023/03/11 01:53:04;;;;;;;12.20;8.48;;;-3.80;83.90;;;;;;5015102;28;20042;-84
2023/03/11 01:55:31;;;;;;;14.15;9.00;;;-3.80;84.10;;;;;;5020475;28;20026;-84
2023/03/11 01:58:04;;;;;;;18.05;8.20;;;-3.80;84.10;;;;;;5023687;28;20029;-84
2023/03/11 02:00:30;;;;;;;17.70;9.00;;;-3.80;84.50;;;;;;5012169;28;20038;-85
2023/03/11 02:03:00;;;;;;;14.02;9.60;;;-3.70;84.80;;;;;;5014771;28;20017;-85
2023/03/11 02:05:26;;;;;;;19.73;10.27;;;-3.70;84.50;;;;;;5014417;28;20061;-85
2023/03/11 02:07:53;;;;;;;18.02;9.65;;;-3.80;84.40;;;;;;5015480;28;20506;-84
2023/03/11 02:10:20;;;;;;;18.95;10.80;;;-3.80;84.80;;;;;;5050285;28;20030;-84
2023/03/11 02:12:49;;;;;;;15.98;9.90;;;-3.70;85.30;;;;;;5018525;28;20036;-84
2023/03/11 02:15:15;;;;;;;17.90;11.18;;;-3.70;85.60;;;;;;5015007;28;20030;-83
2023/03/11 02:17:42;;;;;;;15.63;11.85;;;-3.70;85.80;;;;;;5014279;28;20029;-85
2023/03/11 02:20:19;;;;;;;15.63;10.38;;;-3.70;85.70;;;;;;5014576;28;20057;-84
2023/03/11 02:22:46;;;;;;;19.92;11.45;;;-3.80;86.20;;;;;;5021243;28;20038;-85
2023/03/11 02:25:34;;;;;;;23.10;12.85;;;-3.80;86.10;;;;;;5013074;28;20025;-85
2023/03/11 02:28:04;;;;;;;24.92;12.25;;;-3.70;86.20;;;;;;5028076;28;20025;-84
2023/03/11 02:30:33;;;;;;;17.98;10.45;;;-3.70;86.30;;;;;;5033019;28;20010;-85
2023/03/11 02:33:00;;;;;;;19.77;11.55;;;-3.70;86.90;;;;;;5050180;28;20014;-85
2023/03/11 02:35:27;;;;;;;22.67;11.68;;;-3.70;87.30;;;;;;5033767;28;20072;-85
2023/03/11 02:37:53;;;;;;;21.58;13.68;;;-3.80;87.60;;;;;;5020799;28;20026;-83
2023/03/11 02:40:22;;;;;;;23.50;10.60;;;-3.80;87.90;;;;;;5014166;28;20045;-83
2023/03/11 02:42:53;;;;;;;21.73;12.30;;;-3.90;88.10;;;;;;5013561;28;20025;-83
2023/03/11 02:45:23;;;;;;;18.42;12.25;;;-3.90;88.40;;;;;;5015711;28;20022;-86
2023/03/11 02:47:51;;;;;;;20.15;11.93;;;-3.80;88.70;;;;;;5012656;28;20029;-86
2023/03/11 02:50:18;;;;;;;19.85;12.10;;;-3.80;88.30;;;;;;5013056;28;20044;-85
2023/03/11 02:52:44;;;;;;;18.60;11.07;;;-3.80;88.50;;;;;;5014131;28;20056;-86
2023/03/11 02:55:11;;;;;;;20.80;11.30;;;-3.70;88.80;;;;;;5015022;28;20018;-85
2023/03/11 02:57:37;;;;;;;23.58;13.18;;;-3.70;88.70;;;;;;5014214;28;20050;-85
2023/03/11 03:00:13;;;;;;;25.90;13.82;;;-3.70;88.70;;;;;;5013877;28;20057;-84
2023/03/11 03:02:40;;;;;;;21.27;12.63;;;-3.70;88.90;;;;;;5015310;28;20037;-85
2023/03/11 03:05:07;;;;;;;25.88;14.07;;;-3.70;88.60;;;;;;5016269;28;20022;-85
2023/03/11 03:07:33;;;;;;;26.30;13.03;;;-3.70;88.40;;;;;;5023048;28;20053;-84
2023/03/11 03:09:59;;;;;;;20.38;14.48;;;-3.80;88.70;;;;;;5030256;28;20033;-85
2023/03/11 03:12:25;;;;;;;20.80;13.30;;;-3.80;88.90;;;;;;5029672;28;20089;-85
2023/03/11 03:14:50;;;;;;;23.50;14.55;;;-3.80;89.20;;;;;;5024041;28;20022;-86
2023/03/11 03:17:17;;;;;;;21.95;11.68;;;-3.70;89.70;;;;;;5023995;28;20241;-85
2023/03/11 03:19:43;;;;;;;23.40;14.75;;;-3.80;90.00;;;;;;5024442;28;20394;-85
2023/03/11 03:22:09;;;;;;;27.25;15.45;;;-3.80;90.20;;;;;;5032350;28;20006;-87
2023/03/11 03:24:35;;;;;;;24.27;13.80;;;-3.80;90.40;;;;;;5037919;28;20094;-86
2023/03/11 03:27:01;;;;;;;23.63;14.02;;;-3.80;90.50;;;;;;5032686;28;20034;-84
2023/03/11 03:29:27;;;;;;;24.90;13.75;;;-3.80;90.60;;;;;;5005180;28;20038;-86
2023/03/11 03:31:53;;;;;;;23.88;14.75;;;-3.80;90.70;;;;;;5006848;28;20494;-85
2023/03/11 03:34:19;;;;;;;28.60;15.05;;;-3.80;90.80;;;;;;5022675;28;20061;-86
2023/03/11 03:36:45;;;;;;;23.55;15.15;;;-3.80;91.00;;;;;;5012413;28;20022;-87
2023/03/11 03:39:12;;;;;;;17.97;11.27;;;-3.80;91.10;;;;;;5000446;28;20049;-85
2023/03/11 03:41:38;;;;;;;25.20;14.95;;;-3.80;91.20;;;;;;5021319;28;20391;-86
2023/03/11 03:44:04;;;;;;;25.63;16.48;;;-3.90;91.40;;;;;;5032564;28;20053;-84
2023/03/11 03:46:30;;;;;;;23.10;15.15;;;-3.90;91.60;;;;;;5037247;28;20042;-84
2023/03/11 03:48:56;;;;;;;24.75;16.50;;;-3.90;91.80;;;;;;5044506;28;20030;-84
2023/03/11 03:51:22;;;;;;;26.15;16.13;;;-3.90;92.00;;;;;;5029625;28;20022;-85
2023/03/11 03:53:48;;;;;;;29.83;16.77;;;-3.90;92.20;;;;;;5024337;28;20032;-84
2023/03/11 03:56:16;;;;;;;32.08;16.83;;;-3.90;92.50;;;;;;5022719;28;20024;-85
2023/03/11 03:58:42;;;;;;;21.45;13.68;;;-3.90;92.60;;;;;;5018749;28;20054;-86
2023/03/11 04:01:09;;;;;;;23.38;15.18;;;-3.90;92.80;;;;;;5018662;28;20037;-85
2023/03/11 04:03:37;;;;;;;27.33;15.38;;;-4.00;92.90;;;;;;5025497;28;20052;-85
2023/03/11 04:06:09;;;;;;;24.48;13.88;;;-4.00;93.20;;;;;;5022445;28;20068;-85
2023/03/11 04:08:36;;;;;;;30.23;16.48;;;-4.00;93.40;;;;;;5026447;28;20395;-85
2023/03/11 04:11:02;;;;;;;27.98;18.00;;;-4.00;93.60;;;;;;5023723;28;20022;-86
2023/03/11 04:13:28;;;;;;;28.45;16.27;;;-4.00;93.70;;;;;;5021493;28;20018;-85
2023/03/11 04:15:53;;;;;;;31.83;18.60;;;-4.00;93.90;;;;;;5024676;28;20085;-85
2023/03/11 04:18:21;;;;;;;28.17;20.00;;;-4.00;94.10;;;;;;5022698;28;20022;-85
2023/03/11 04:20:48;;;;;;;28.95;18.40;;;-4.00;94.20;;;;;;5015842;28;20065;-84
2023/03/11 04:23:13;;;;;;;27.98;16.40;;;-4.00;94.40;;;;;;5014567;28;20467;-85
2023/03/11 04:25:39;;;;;;;33.33;18.63;;;-4.00;94.50;;;;;;5015171;28;20026;-85
2023/03/11 04:28:05;;;;;;;36.15;23.80;;;-3.90;94.70;;;;;;5016768;28;20045;-86
2023/03/11 04:30:31;;;;;;;32.20;19.08;;;-3.90;94.80;;;;;;5015884;28;20495;-86
2023/03/11 04:32:57;;;;;;;37.80;20.60;;;-3.90;94.80;;;;;;5016431;28;20032;-85
2023/03/11 04:35:23;;;;;;;29.42;19.30;;;-3.90;95.00;;;;;;5020808;28;20033;-86
2023/03/11 04:37:49;;;;;;;36.08;18.73;;;-3.90;95.10;;;;;;5023434;28;20041;-84
2023/03/11 04:40:15;;;;;;;34.28;21.80;;;-4.00;95.20;;;;;;5014106;28;20034;-85
2023/03/11 04:42:41;;;;;;;35.15;21.15;;;-4.00;95.40;;;;;;5018982;28;20022;-84
2023/03/11 04:45:07;;;;;;;32.88;19.77;;;-3.90;95.50;;;;;;5014532;28;20117;-86
2023/03/11 04:47:36;;;;;;;33.55;20.20;;;-3.90;95.60;;;;;;5016499;28;20029;-85
2023/03/11 04:50:02;;;;;;;32.50;21.08;;;-3.90;95.70;;;;;;5015679;28;20025;-86
2023/03/11 04:52:28;;;;;;;26.57;15.47;;;-3.90;95.80;;;;;;5016782;28;20025;-85
2023/03/11 04:54:54;;;;;;;32.95;19.15;;;-3.90;95.90;;;;;;5016990;28;20018;-83
2023/03/11 04:57:20;;;;;;;29.85;19.58;;;-3.90;96.00;;;;;;5006723;28;20121;-84
2023/03/11 04:59:46;;;;;;;31.00;20.50;;;-3.90;96.10;;;;;;5011016;28;20492;-84
2023/03/11 05:02:12;;;;;;;33.33;18.15;;;-3.80;96.10;;;;;;5017576;28;20038;-85
2023/03/11 05:04:38;;;;;;;34.95;17.98;;;-3.70;96.10;;;;;;5020221;28;20029;-85
2023/03/11 05:07:04;;;;;;;24.67;16.20;;;-3.80;96.20;;;;;;5013414;28;20022;-85
2023/03/11 05:09:30;;;;;;;23.95;15.75;;;-3.70;96.40;;;;;;5014791;28;20132;-85
2023/03/11 05:11:56;;;;;;;25.23;16.48;;;-3.70;96.50;;;;;;5013576;28;20397;-86
2023/03/11 05:14:22;;;;;;;20.42;14.45;;;-3.70;96.50;;;;;;5014619;28;20423;-85
2023/03/11 05:16:47;;;;;;;25.15;15.18;;;-3.80;96.50;;;;;;5015912;28;20029;-85
2023/03/11 05:19:33;;;;;;;27.38;16.05;;;-3.80;96.70;;;;;;5016674;28;20030;-85
2023/03/11 05:22:01;;;;;;;21.05;14.50;;;-3.70;96.70;;;;;;5020696;28;20125;-85
2023/03/11 05:24:30;;;;;;;24.38;14.75;;;-3.70;96.70;;;;;;5025626;28;20034;-84
2023/03/11 05:26:56;;;;;;;21.33;14.43;;;-3.70;96.80;;;;;;5014745;28;20037;-85
2023/03/11 05:29:23;;;;;;;29.65;15.13;;;-3.70;96.80;;;;;;5030075;28;20014;-86
2023/03/11 05:31:56;;;;;;;23.85;15.20;;;-3.70;97.00;;;;;;5025607;28;20022;-87
2023/03/11 05:34:23;;;;;;;24.45;13.65;;;-3.70;97.00;;;;;;5015333;28;20380;-86
2023/03/11 05:36:49;;;;;;;19.30;12.20;;;-3.60;97.00;;;;;;5015521;28;20424;-84
2023/03/11 05:39:15;;;;;;;19.23;13.60;;;-3.60;97.00;;;;;;5014423;28;20069;-85
2023/03/11 05:41:41;;;;;;;20.17;14.57;;;-3.60;97.10;;;;;;5017093;28;20176;-86
2023/03/11 05:44:07;;;;;;;17.30;13.18;;;-3.60;97.20;;;;;;5002623;28;20038;-84
2023/03/11 05:46:33;;;;;;;23.00;13.65;;;-3.50;97.10;;;;;;5008941;28;20115;-85
2023/03/11 05:48:59;;;;;;;22.55;15.68;;;-3.50;97.10;;;;;;5016905;28;20069;-86
2023/03/11 05:51:25;;;;;;;25.10;12.63;;;-3.50;97.10;;;;;;5030584;28;20415;-85
2023/03/11 05:53:51;;;;;;;21.20;12.27;;;-3.50;97.00;;;;;;5017793;28;20895;-85
2023/03/11 05:56:21;;;;;;;21.33;13.40;;;-3.60;97.00;;;;;;4997572;28;20070;-84
2023/03/11 05:58:49;;;;;;;20.42;11.73;;;-3.50;97.10;;;;;;5000071;28;20087;-85
2023/03/11 06:01:17;;;;;;;18.55;13.55;;;-3.50;97.20;;;;;;5010265;28;20123;-85
2023/03/11 06:03:45;;;;;;;22.33;12.85;;;-3.50;97.30;;;;;;4996858;28;20100;-86
2023/03/11 06:06:12;;;;;;;26.85;13.07;;;-3.50;97.50;;;;;;5002871;28;20038;-85
2023/03/11 06:08:38;;;;;;;26.60;13.60;;;-3.50;97.60;;;;;;5007473;28;20042;-84
2023/03/11 06:11:06;;;;;;;21.40;12.38;;;-3.50;97.80;;;;;;5010424;28;20031;-83
2023/03/11 06:13:33;;;;;;;20.63;11.88;;;-3.40;98.00;;;;;;5014789;28;20026;-86
2023/03/11 06:16:00;;;;;;;17.37;12.33;;;-3.40;98.00;;;;;;5006795;28;20030;-85
2023/03/11 06:18:27;;;;;;;19.73;12.63;;;-3.40;98.00;;;;;;5012128;28;20026;-86
2023/03/11 06:20:56;;;;;;;18.55;12.07;;;-3.50;98.10;;;;;;4999854;28;20105;-87
2023/03/11 06:23:22;;;;;;;19.77;10.95;;;-3.50;97.90;;;;;;5013946;28;20555;-87
2023/03/11 06:25:55;;;;;;;16.38;10.48;;;-3.40;98.00;;;;;;5028447;28;20053;-86
2023/03/11 06:28:23;;;;;;;14.65;10.27;;;-3.40;97.80;;;;;;5032976;28;20114;-87
2023/03/11 06:30:48;;;;;;;;;;;-3.40;97.90;;;;;;5010396;28;20037;-88
2023/03/11 06:33:14;;;;;;;15.50;9.55;;;-3.40;97.90;;;;;;4999763;28;19905;-86
2023/03/11 06:35:40;;;;;;;19.10;11.35;;;-3.30;98.00;;;;;;4989690;28;20037;-87
2023/03/11 06:38:06;;;;;;;12.50;9.13;;;-3.30;98.00;;;;;;4999413;28;20018;-87
2023/03/11 06:40:32;;;;;;;20.67;9.70;;;-3.30;97.80;;;;;;5008214;28;20040;-87
2023/03/11 06:42:58;;;;;;;15.95;9.95;;;-3.20;97.80;;;;;;5028158;28;20042;-86
2023/03/11 06:45:24;;;;;;;13.80;9.18;;;-3.30;97.60;;;;;;5024326;28;20052;-86
2023/03/11 06:47:50;;;;;;;16.73;10.23;;;-3.30;97.80;;;;;;5021169;28;20062;-85
2023/03/11 06:50:16;;;;;;;16.92;9.68;;;-3.40;97.70;;;;;;5020175;28;20033;-86
2023/03/11 06:52:42;;;;;;;17.80;10.27;;;-3.30;98.10;;;;;;5022327;28;20033;-86
2023/03/11 06:55:08;;;;;;;17.25;9.30;;;-3.30;97.70;;;;;;5027575;28;20030;-84
2023/03/11 06:57:34;;;;;;;16.67;11.23;;;-3.20;97.60;;;;;;5025376;28;20057;-85
2023/03/11 07:00:00;;;;;;;14.75;10.23;;;-3.10;97.70;;;;;;5015494;28;20053;-87
2023/03/11 07:02:26;;;;;;;15.55;10.63;;;-3.00;97.70;;;;;;5036475;28;20200;-88
2023/03/11 07:04:52;;;;;;;18.88;10.90;;;-3.00;97.70;;;;;;5025653;28;20069;-87
2023/03/11 07:07:19;;;;;;;13.82;10.48;;;-3.00;97.70;;;;;;5021128;28;20036;-90
2023/03/11 07:09:45;;;;;;;17.33;10.50;;;-2.90;97.40;;;;;;5020561;28;20054;-88
2023/03/11 07:12:11;;;;;;;15.32;10.32;;;-2.90;97.30;;;;;;5020042;28;20121;-88
2023/03/11 07:14:37;;;;;;;15.05;10.88;;;-2.80;97.20;;;;;;5003434;28;20041;-88
2023/03/11 07:17:03;;;;;;;18.33;10.15;;;-2.80;97.20;;;;;;5026028;28;20090;-87
2023/03/11 07:19:29;;;;;;;13.20;9.60;;;-2.70;97.20;;;;;;5005882;28;20621;-88
2023/03/11 07:21:56;;;;;;;18.45;11.38;;;-2.80;97.40;;;;;;5002153;28;20037;-88
2023/03/11 07:24:22;;;;;;;16.55;10.00;;;-2.70;97.40;;;;;;5000778;28;20022;-88
2023/03/11 07:26:48;;;;;;;19.13;9.43;;;-2.70;97.30;;;;;;4999032;28;20228;-85
2023/03/11 07:29:14;;;;;;;15.48;9.00;;;-2.70;97.50;;;;;;5002253;28;20383;-86
2023/03/11 07:31:40;;;;;;;17.30;9.75;;;-2.70;97.70;;;;;;5004297;28;20030;-83
2023/03/11 07:34:13;;;;;;;11.70;8.45;;;-2.60;97.80;;;;;;4999054;28;20037;-86
2023/03/11 07:36:40;;;;;;;15.50;9.15;;;-2.50;97.70;;;;;;4999257;28;20030;-87
2023/03/11 07:39:06;;;;;;;14.60;8.52;;;-2.50;97.50;;;;;;5002144;28;20237;-86
2023/03/11 07:41:35;;;;;;;20.02;10.20;;;-2.40;97.60;;;;;;5002149;28;20121;-87
2023/03/11 07:44:03;;;;;;;16.55;9.68;;;-2.40;97.60;;;;;;4989400;28;20022;-87
2023/03/11 07:46:29;;;;;;;18.10;10.43;;;-2.40;97.70;;;;;;4997949;28;20061;-85
2023/03/11 07:48:55;;;;;;;13.60;9.17;;;-2.20;97.50;;;;;;4997984;28;20100;-86
2023/03/11 07:51:30;;;;;;;14.88;9.90;;;-2.20;97.30;;;;;;4997821;28;20276;-87
2023/03/11 07:53:58;;;;;;;16.98;10.20;;;-2.10;96.80;;;;;;5001276;28;20050;-86
2023/03/11 07:56:33;;;;;;;14.70;8.95;;;-2.00;96.30;;;;;;5005489;28;20030;-87
2023/03/11 07:59:01;;;;;;;11.27;7.72;;;-2.10;96.20;;;;;;5010219;28;20503;-85
2023/03/11 08:01:34;;;;;;;12.38;8.45;;;-2.10;96.50;;;;;;5017985;28;20049;-85
2023/03/11 08:04:02;;;;;;;11.38;8.43;;;-2.10;96.40;;;;;;5018376;28;20033;-85
2023/03/11 08:06:30;;;;;;;15.52;8.45;;;-2.10;96.40;;;;;;5018252;28;20505;-86
2023/03/11 08:09:03;;;;;;;11.25;6.93;;;-2.10;96.30;;;;;;5016989;28;20068;-86
2023/03/11 08:11:32;;;;;;;14.82;9.25;;;-2.10;96.60;;;;;;5015968;28;20033;-85
2023/03/11 08:13:58;;;;;;;12.05;8.25;;;-2.20;96.70;;;;;;5021473;28;20049;-84
2023/03/11 08:16:25;;;;;;;12.13;8.23;;;-2.10;96.90;;;;;;5030301;28;20033;-85
2023/03/11 08:18:52;;;;;;;14.77;9.93;;;-2.10;96.80;;;;;;5019648;28;20029;-86
2023/03/11 08:21:21;;;;;;;15.83;9.07;;;-2.10;96.70;;;;;;5017295;28;20034;-85
2023/03/11 08:23:47;;;;;;;15.55;8.73;;;-2.10;96.60;;;;;;5018068;28;20030;-85
2023/03/11 08:26:16;;;;;;;17.75;10.35;;;-2.10;96.60;;;;;;5020893;28;20076;-85
2023/03/11 08:28:42;;;;;;;13.20;8.60;;;-2.10;96.40;;;;;;5020368;28;20081;-84
2023/03/11 08:31:13;;;;;;;14.32;9.35;;;-2.10;96.60;;;;;;5020357;28;20092;-85
2023/03/11 08:33:40;;;;;;;13.60;10.27;;;-2.00;97.00;;;;;;5040680;28;20108;-85
2023/03/11 08:36:06;;;;;;;18.25;10.63;;;-2.00;97.00;;;;;;5038735;28;20018;-84
2023/03/11 08:38:32;;;;;;;16.40;9.90;;;-1.90;97.00;;;;;;5042070;28;20036;-87
2023/03/11 08:40:58;;;;;;;18.08;11.52;;;-1.90;96.80;;;;;;5014071;28;20062;-85
2023/03/11 08:43:23;;;;;;;18.48;11.27;;;-2.00;96.70;;;;;;5035053;28;20051;-85
2023/03/11 08:45:49;;;;;;;14.10;10.35;;;-1.90;96.70;;;;;;5012322;28;20538;-85
2023/03/11 08:48:15;;;;;;;17.70;10.20;;;-1.80;96.80;;;;;;5028168;28;20455;-87
2023/03/11 08:50:42;;;;;;;22.75;9.20;;;-1.70;96.60;;;;;;5035023;28;20061;-86
2023/03/11 08:53:08;;;;;;;16.30;9.85;;;-1.70;96.60;;;;;;5027036;28;20422;-85
2023/03/11 08:55:40;;;;;;;19.25;9.82;;;-1.70;96.90;;;;;;5031248;28;20052;-86
2023/03/11 08:58:06;;;;;;;17.77;10.18;;;-1.70;97.10;;;;;;5017500;28;20040;-83
2023/03/11 09:00:32;;;;;;;14.07;9.10;;;-1.70;97.10;;;;;;5030387;28;20430;-86
2023/03/11 09:02:58;;;;;;;10.57;9.00;;;-1.70;97.00;;;;;;5015643;28;20049;-84
2023/03/11 09:05:24;;;;;;;15.10;8.57;;;-1.70;96.70;;;;;;5021349;28;20025;-87
2023/03/11 09:07:50;;;;;;;12.00;8.55;;;-1.70;96.30;;;;;;5020709;28;20042;-87
2023/03/11 09:10:18;;;;;;;17.75;9.38;;;-1.80;96.00;;;;;;5018487;28;20077;-86
2023/03/11 09:12:43;;;;;;;12.40;9.70;;;-1.80;96.00;;;;;;5016245;28;20077;-88
2023/03/11 09:15:10;;;;;;;16.73;13.02;;;-1.80;95.80;;;;;;5020938;28;20443;-84
2023/03/11 09:17:36;;;;;;;16.45;10.18;;;-1.90;95.90;;;;;;5024894;28;20022;-85
2023/03/11 09:20:03;;;;;;;16.48;8.05;;;-1.90;96.00;;;;;;5021122;28;20034;-89
2023/03/11 09:22:29;;;;;;;16.80;8.33;;;-1.90;96.00;;;;;;5023039;28;20025;-86
2023/03/11 09:24:56;;;;;;;15.05;9.38;;;-2.00;96.20;;;;;;5018996;28;20481;-85
2023/03/11 09:27:21;;;;;;;13.25;9.95;;;-2.00;96.40;;;;;;5021013;28;20127;-86
2023/03/11 09:29:47;;;;;;;16.42;10.15;;;-2.00;96.60;;;;;;5030982;28;20022;-85
2023/03/11 09:32:14;;;;;;;22.10;10.63;;;-2.00;96.70;;;;;;5022426;28;20026;-85
2023/03/11 09:34:40;;;;;;;15.77;10.48;;;-2.00;96.80;;;;;;5023688;28;20079;-85
2023/03/11 09:37:30;;;;;;;13.35;9.85;;;-1.90;96.80;;;;;;5027641;28;20137;-86
2023/03/11 09:39:56;;;;;;;15.02;9.43;;;-1.90;97.10;;;;;;5015741;28;20044;-83
2023/03/11 09:42:32;;;;;;;13.20;8.52;;;-1.90;97.10;;;;;;5023942;28;20090;-85
2023/03/11 09:45:24;;;;;;;16.27;9.55;;;-1.90;97.20;;;;;;5030658;28;20033;-83
2023/03/11 09:48:13;;;;;;;10.57;7.35;;;-1.80;97.00;;;;;;5019875;28;20077;-84
2023/03/11 09:50:49;;;;;;;10.95;8.45;;;-1.90;96.80;;;;;;5021110;28;20022;-82
2023/03/11 09:53:39;;;;;;;17.02;9.52;;;-1.90;97.00;;;;;;5023336;28;20022;-87
2023/03/11 09:56:08;;;;;;;13.00;8.10;;;-1.90;96.80;;;;;;5011062;28;20026;-84
2023/03/11 09:58:51;;;;;;;11.85;8.90;;;-1.90;96.80;;;;;;5019644;28;20441;-86
2023/03/11 10:01:25;;;;;;;14.95;7.65;;;-1.90;96.80;;;;;;5017761;28;20414;-89
2023/03/11 10:03:55;;;;;;;19.52;9.20;;;-1.90;96.60;;;;;;5013895;28;20014;-83
2023/03/11 10:06:27;;;;;;;12.85;9.07;;;-1.80;96.70;;;;;;5015540;28;20072;-83
2023/03/11 10:08:59;;;;;;;15.88;8.50;;;-1.80;96.70;;;;;;5013147;28;20121;-83
2023/03/11 10:11:46;;;;;;;13.13;9.32;;;-1.80;96.70;;;;;;5014395;28;20196;-84
2023/03/11 10:14:35;;;;;;;10.98;8.57;;;-1.70;96.60;;;;;;5011688;28;20084;-85
2023/03/11 10:17:34;;;;;;;10.95;7.72;;;-1.70;96.60;;;;;;4990736;28;20438;-86
2023/03/11 10:20:08;;;;;;;13.40;8.82;;;-1.70;96.60;;;;;;5021710;28;20123;-83
2023/03/11 10:23:08;;;;;;;16.80;9.10;;;-1.80;96.30;;;;;;4996064;28;20042;-83
2023/03/11 10:25:48;;;;;;;17.67;9.65;;;-1.80;96.10;;;;;;5027416;28;20029;-82
2023/03/11 10:28:21;;;;;;;12.05;8.63;;;-1.80;96.00;;;;;;5038819;28;20045;-84
2023/03/11 10:31:17;;;;;;;22.30;14.50;;;-1.80;96.30;;;;;;5027998;28;20093;-84
2023/03/11 10:33:49;;;;;;;12.35;8.35;;;-1.80;95.90;;;;;;5033184;28;20487;-88
2023/03/11 10:36:25;;;;;;;11.98;9.73;;;-1.90;96.00;;;;;;5023640;28;20026;-87
2023/03/11 10:38:54;;;;;;;14.27;9.38;;;-1.90;96.10;;;;;;5021495;28;20073;-88
2023/03/11 10:41:28;;;;;;;12.50;9.40;;;-1.90;95.70;;;;;;5021176;28;20045;-85
2023/03/11 10:44:26;;;;;;;13.43;9.90;;;-2.00;96.00;;;;;;5039975;28;20026;-84
2023/03/11 10:46:52;;;;;;;14.57;8.82;;;-2.00;96.00;;;;;;5022219;28;20025;-86
2023/03/11 10:49:18;;;;;;;13.00;9.75;;;-2.00;96.20;;;;;;5015726;28;20079;-84
2023/03/11 10:51:54;;;;;;;15.00;11.02;;;-2.00;96.20;;;;;;5015401;28;20010;-84
2023/03/11 10:54:47;;;;;;;14.18;10.10;;;-2.00;96.00;;;;;;5032965;28;20013;-82
2023/03/11 10:57:24;;;;;;;17.38;9.93;;;-2.00;95.80;;;;;;5028329;28;20030;-87
2023/03/11 11:00:11;;;;;;;17.75;10.68;;;-2.00;95.80;;;;;;5046359;28;20450;-87
2023/03/11 11:02:39;;;;;;;;;;;-1.90;95.60;;;;;;5028085;28;20105;-84
2023/03/11 11:05:17;;;;;;;20.92;10.88;;;-1.90;95.80;;;;;;5031419;28;19935;-88
2023/03/11 11:08:11;;;;;;;15.07;10.00;;;-2.00;95.70;;;;;;5032695;28;20026;-86
2023/03/11 11:10:47;;;;;;;19.15;11.02;;;-1.90;95.90;;;;;;5017548;28;20099;-86
2023/03/11 11:13:13;;;;;;;16.80;11.37;;;-1.90;95.90;;;;;;5030599;28;20030;-88
2023/03/11 11:15:50;;;;;;;19.55;12.15;;;-2.00;96.20;;;;;;5035278;28;20038;-89
2023/03/11 11:18:31;;;;;;;19.73;12.63;;;-1.90;96.30;;;;;;5031327;28;20022;-86
2023/03/11 11:21:12;;;;;;;21.02;11.45;;;-1.80;96.50;;;;;;5005941;28;20041;-94
2023/03/11 11:23:47;;;;;;;12.82;10.50;;;-1.70;96.40;;;;;;5017106;28;20029;-90
2023/03/11 11:26:22;;;;;;;21.60;11.32;;;-1.70;96.30;;;;;;5032945;28;20026;-88
2023/03/11 11:29:06;;;;;;;17.88;11.50;;;-1.60;96.60;;;;;;5045547;28;20033;-88
2023/03/11 11:31:32;;;;;;;18.33;12.57;;;-1.60;96.50;;;;;;5033558;28;20037;-89
2023/03/11 11:33:58;;;;;;;13.77;11.25;;;-1.60;96.50;;;;;;5015219;28;20029;-91
2023/03/11 11:36:31;;;;;;;19.48;12.60;;;-1.60;96.40;;;;;;5017391;28;20486;-88
2023/03/11 11:39:03;;;;;;;20.25;12.38;;;-1.60;96.10;;;;;;5021627;28;20057;-91
2023/03/11 11:41:35;;;;;;;17.13;12.82;;;-1.60;96.30;;;;;;5022887;28;20039;-91
2023/03/11 11:44:36;;;;;;;18.08;11.30;;;-1.60;96.10;;;;;;5033105;28;20022;-92
2023/03/11 11:47:12;;;;;;;18.17;12.50;;;-1.70;95.90;;;;;;5028977;28;20026;-91
2023/03/11 11:49:49;;;;;;;16.65;10.55;;;-1.70;96.10;;;;;;4993948;28;20030;-84
2023/03/11 11:52:20;;;;;;;19.20;11.98;;;-1.70;96.50;;;;;;5026495;28;20046;-86
2023/03/11 11:54:51;;;;;;;19.20;11.98;;;-1.80;96.40;;;;;;5023969;28;20029;-86
2023/03/11 11:57:20;;;;;;;19.15;11.75;;;-1.70;96.60;;;;;;5038562;28;20001;-86
2023/03/11 11:59:46;;;;;;;20.02;13.95;;;-1.70;96.60;;;;;;5021248;28;20230;-86
2023/03/11 12:02:17;;;;;;;16.23;11.63;;;-1.70;96.80;;;;;;5023428;28;20022;-85
2023/03/11 12:05:15;;;;;;;17.95;12.25;;;-1.70;96.80;;;;;;5021644;28;20026;-91
2023/03/11 12:07:59;;;;;;;18.58;12.07;;;-1.60;96.60;;;;;;5027001;28;20022;-88
2023/03/11 12:10:32;;;;;;;17.63;11.15;;;-1.60;97.00;;;;;;5025187;28;20032;-85
2023/03/11 12:13:04;;;;;;;21.08;14.20;;;-1.70;96.90;;;;;;5021371;28;20042;-86
2023/03/11 12:16:12;;;;;;;16.55;12.45;;;-1.70;96.80;;;;;;5034990;28;20018;-89
2023/03/11 12:19:02;;;;;;;18.02;12.75;;;-1.70;96.70;;;;;;5032189;28;20037;-88
2023/03/11 12:21:38;;;;;;;17.75;12.73;;;-1.60;97.00;;;;;;5030042;28;20525;-85
2023/03/11 12:24:16;;;;;;;15.88;10.75;;;-1.70;97.10;;;;;;5030129;28;20034;-87
2023/03/11 12:26:46;;;;;;;19.02;12.85;;;-1.60;97.30;;;;;;5029231;28;20486;-86
2023/03/11 12:29:47;;;;;;;17.63;12.07;;;-1.60;97.20;;;;;;5029375;28;20025;-86
2023/03/11 12:32:40;;;;;;;21.55;14.30;;;-1.60;97.30;;;;;;5016990;28;20030;-86
2023/03/11 12:35:29;;;;;;;22.88;13.38;;;-1.60;97.50;;;;;;5034927;28;20382;-86
2023/03/11 12:37:59;;;;;;;18.58;12.13;;;-1.50;97.50;;;;;;5026502;28;20081;-88
2023/03/11 12:40:48;;;;;;;17.80;12.23;;;-1.60;97.50;;;;;;5025894;28;20479;-88
2023/03/11 12:43:28;;;;;;;15.43;10.18;;;-1.50;97.60;;;;;;5030482;28;20423;-87
2023/03/11 12:45:58;;;;;;;16.33;11.38;;;-1.50;97.60;;;;;;5028505;28;20029;-93